sensor_id;sensor_type;location;lat;lon;timestamp;temperature;humidity
10802;DHT22;5453;50.852;7.102;2022-07-24T00:01:16;20.00;99.90
10802;DHT22;5453;50.852;7.102;2022-07-24T00:03:48;20.00;99.90
10802;DHT22;5453;50.852;7.102;2022-07-24T00:06:21;19.90;99.90
10802;DHT22;5453;50.852;7.102;2022-07-24T00:08:53;19.90;99.90
10802;DHT22;5453;50.852;7.102;2022-07-24T00:11:25;19.80;99.90
10802;DHT22;5453;50.852;7.102;2022-07-24T00:13:57;19.80;99.90
10802;DHT22;5453;50.852;7.102;2022-07-24T00:16:31;19.70;99.90
10802;DHT22;5453;50.852;7.102;2022-07-24T00:19:03;19.70;99.90
10802;DHT22;5453;50.852;7.102;2022-07-24T00:21:35;19.70;99.90
10802;DHT22;5453;50.852;7.102;2022-07-24T00:24:07;19.60;99.90
10802;DHT22;5453;50.852;7.102;2022-07-24T00:26:40;19.60;99.90
10802;DHT22;5453;50.852;7.102;2022-07-24T00:29:12;19.50;99.90
10802;DHT22;5453;50.852;7.102;2022-07-24T00:31:45;19.50;99.90
10802;DHT22;5453;50.852;7.102;2022-07-24T00:34:17;19.50;99.90
10802;DHT22;5453;50.852;7.102;2022-07-24T00:36:50;19.50;99.90
10802;DHT22;5453;50.852;7.102;2022-07-24T00:39:22;19.40;99.90
10802;DHT22;5453;50.852;7.102;2022-07-24T00:41:54;19.40;99.90
10802;DHT22;5453;50.852;7.102;2022-07-24T00:44:27;19.40;99.90
10802;DHT22;5453;50.852;7.102;2022-07-24T00:47:00;19.40;99.90
10802;DHT22;5453;50.852;7.102;2022-07-24T00:49:33;19.40;99.90
10802;DHT22;5453;50.852;7.102;2022-07-24T00:52:05;19.30;99.90
10802;DHT22;5453;50.852;7.102;2022-07-24T00:54:37;19.30;99.90
10802;DHT22;5453;50.852;7.102;2022-07-24T00:57:09;19.20;99.90
10802;DHT22;5453;50.852;7.102;2022-07-24T00:59:42;19.20;99.90
10802;DHT22;5453;50.852;7.102;2022-07-24T01:02:15;19.20;99.90
10802;DHT22;5453;50.852;7.102;2022-07-24T01:04:48;19.20;99.90
10802;DHT22;5453;50.852;7.102;2022-07-24T01:07:20;19.20;99.90
10802;DHT22;5453;50.852;7.102;2022-07-24T01:09:52;19.30;99.90
10802;DHT22;5453;50.852;7.102;2022-07-24T01:12:25;19.30;99.90
10802;DHT22;5453;50.852;7.102;2022-07-24T01:14:58;19.30;99.90
10802;DHT22;5453;50.852;7.102;2022-07-24T01:17:32;19.30;99.90
10802;DHT22;5453;50.852;7.102;2022-07-24T01:20:07;19.30;99.90
10802;DHT22;5453;50.852;7.102;2022-07-24T01:22:42;19.20;99.90
10802;DHT22;5453;50.852;7.102;2022-07-24T01:25:14;19.20;99.90
10802;DHT22;5453;50.852;7.102;2022-07-24T01:27:46;19.20;99.90
10802;DHT22;5453;50.852;7.102;2022-07-24T01:30:18;19.20;99.90
10802;DHT22;5453;50.852;7.102;2022-07-24T01:32:50;19.20;99.90
10802;DHT22;5453;50.852;7.102;2022-07-24T01:35:22;19.20;99.90
10802;DHT22;5453;50.852;7.102;2022-07-24T01:37:56;19.20;99.90
10802;DHT22;5453;50.852;7.102;2022-07-24T01:40:28;19.20;99.90
10802;DHT22;5453;50.852;7.102;2022-07-24T01:43:01;19.20;99.90
10802;DHT22;5453;50.852;7.102;2022-07-24T01:45:33;19.20;99.90
10802;DHT22;5453;50.852;7.102;2022-07-24T01:48:06;19.20;99.90
10802;DHT22;5453;50.852;7.102;2022-07-24T01:50:38;19.10;99.90
10802;DHT22;5453;50.852;7.102;2022-07-24T01:53:11;19.10;99.90
10802;DHT22;5453;50.852;7.102;2022-07-24T01:55:45;19.10;99.90
10802;DHT22;5453;50.852;7.102;2022-07-24T01:58:17;19.00;99.90
10802;DHT22;5453;50.852;7.102;2022-07-24T02:00:50;19.00;99.90
10802;DHT22;5453;50.852;7.102;2022-07-24T02:03:22;19.00;99.90
10802;DHT22;5453;50.852;7.102;2022-07-24T02:05:54;19.00;99.90
10802;DHT22;5453;50.852;7.102;2022-07-24T02:08:27;19.00;99.90
10802;DHT22;5453;50.852;7.102;2022-07-24T02:11:00;19.00;99.90
10802;DHT22;5453;50.852;7.102;2022-07-24T02:13:32;19.00;99.90
10802;DHT22;5453;50.852;7.102;2022-07-24T02:16:04;18.90;99.90
10802;DHT22;5453;50.852;7.102;2022-07-24T02:18:37;18.90;99.90
10802;DHT22;5453;50.852;7.102;2022-07-24T02:21:09;18.90;99.90
10802;DHT22;5453;50.852;7.102;2022-07-24T02:23:43;18.90;99.90
10802;DHT22;5453;50.852;7.102;2022-07-24T02:26:15;18.90;99.90
10802;DHT22;5453;50.852;7.102;2022-07-24T02:28:47;18.80;99.90
10802;DHT22;5453;50.852;7.102;2022-07-24T02:31:20;18.80;99.90
10802;DHT22;5453;50.852;7.102;2022-07-24T02:33:52;18.80;99.90
10802;DHT22;5453;50.852;7.102;2022-07-24T02:36:24;18.80;99.90
10802;DHT22;5453;50.852;7.102;2022-07-24T02:38:58;18.80;99.90
10802;DHT22;5453;50.852;7.102;2022-07-24T02:41:30;18.70;99.90
10802;DHT22;5453;50.852;7.102;2022-07-24T02:44:02;18.60;99.90
10802;DHT22;5453;50.852;7.102;2022-07-24T02:46:35;18.60;99.90
10802;DHT22;5453;50.852;7.102;2022-07-24T02:49:07;18.60;99.90
10802;DHT22;5453;50.852;7.102;2022-07-24T02:51:39;18.50;99.90
10802;DHT22;5453;50.852;7.102;2022-07-24T02:54:12;18.50;99.90
10802;DHT22;5453;50.852;7.102;2022-07-24T02:56:45;18.40;99.90
10802;DHT22;5453;50.852;7.102;2022-07-24T02:59:17;18.40;99.90
10802;DHT22;5453;50.852;7.102;2022-07-24T03:01:49;18.40;99.90
10802;DHT22;5453;50.852;7.102;2022-07-24T03:04:21;18.40;99.90
10802;DHT22;5453;50.852;7.102;2022-07-24T03:06:53;18.40;99.90
10802;DHT22;5453;50.852;7.102;2022-07-24T03:09:27;18.40;99.90
10802;DHT22;5453;50.852;7.102;2022-07-24T03:11:59;18.40;99.90
10802;DHT22;5453;50.852;7.102;2022-07-24T03:14:31;18.30;99.90
10802;DHT22;5453;50.852;7.102;2022-07-24T03:17:04;18.30;99.90
10802;DHT22;5453;50.852;7.102;2022-07-24T03:19:36;18.30;99.90
10802;DHT22;5453;50.852;7.102;2022-07-24T03:22:09;18.30;99.90
10802;DHT22;5453;50.852;7.102;2022-07-24T03:24:42;18.20;99.90
10802;DHT22;5453;50.852;7.102;2022-07-24T03:27:14;18.20;99.90
10802;DHT22;5453;50.852;7.102;2022-07-24T03:29:47;18.20;99.90
10802;DHT22;5453;50.852;7.102;2022-07-24T03:32:19;18.20;99.90
10802;DHT22;5453;50.852;7.102;2022-07-24T03:34:51;18.10;99.90
10802;DHT22;5453;50.852;7.102;2022-07-24T03:37:23;18.10;99.90
10802;DHT22;5453;50.852;7.102;2022-07-24T03:39:57;18.10;99.90
10802;DHT22;5453;50.852;7.102;2022-07-24T03:42:29;18.10;99.90
10802;DHT22;5453;50.852;7.102;2022-07-24T03:45:01;18.10;99.90
10802;DHT22;5453;50.852;7.102;2022-07-24T03:47:34;18.10;99.90
10802;DHT22;5453;50.852;7.102;2022-07-24T03:50:07;18.10;99.90
10802;DHT22;5453;50.852;7.102;2022-07-24T03:52:39;18.10;99.90
10802;DHT22;5453;50.852;7.102;2022-07-24T03:55:13;18.10;99.90
10802;DHT22;5453;50.852;7.102;2022-07-24T03:57:45;18.00;99.90
10802;DHT22;5453;50.852;7.102;2022-07-24T04:00:17;18.10;99.90
10802;DHT22;5453;50.852;7.102;2022-07-24T04:02:49;18.10;99.90
10802;DHT22;5453;50.852;7.102;2022-07-24T04:05:22;18.10;99.90
10802;DHT22;5453;50.852;7.102;2022-07-24T04:07:54;18.10;99.90
10802;DHT22;5453;50.852;7.102;2022-07-24T04:10:28;18.10;99.90
10802;DHT22;5453;50.852;7.102;2022-07-24T04:13:00;18.10;99.90
10802;DHT22;5453;50.852;7.102;2022-07-24T04:15:32;18.00;99.90
10802;DHT22;5453;50.852;7.102;2022-07-24T04:18:04;18.00;99.90
10802;DHT22;5453;50.852;7.102;2022-07-24T04:20:36;18.10;99.90
10802;DHT22;5453;50.852;7.102;2022-07-24T04:23:09;18.10;99.90
10802;DHT22;5453;50.852;7.102;2022-07-24T04:25:42;18.10;99.90
10802;DHT22;5453;50.852;7.102;2022-07-24T04:28:14;18.10;99.90
10802;DHT22;5453;50.852;7.102;2022-07-24T04:30:47;18.10;99.90
10802;DHT22;5453;50.852;7.102;2022-07-24T04:33:19;18.20;99.90
10802;DHT22;5453;50.852;7.102;2022-07-24T04:35:51;18.20;99.90
10802;DHT22;5453;50.852;7.102;2022-07-24T04:38:24;18.20;99.90
10802;DHT22;5453;50.852;7.102;2022-07-24T04:40:57;18.20;99.90
10802;DHT22;5453;50.852;7.102;2022-07-24T04:43:29;18.30;99.90
10802;DHT22;5453;50.852;7.102;2022-07-24T04:46:01;18.30;99.90
10802;DHT22;5453;50.852;7.102;2022-07-24T04:48:33;18.40;99.90
10802;DHT22;5453;50.852;7.102;2022-07-24T04:51:05;18.40;99.90
10802;DHT22;5453;50.852;7.102;2022-07-24T04:53:38;18.40;99.90
10802;DHT22;5453;50.852;7.102;2022-07-24T04:56:11;18.50;99.90
10802;DHT22;5453;50.852;7.102;2022-07-24T04:58:44;18.60;99.90
10802;DHT22;5453;50.852;7.102;2022-07-24T05:01:16;18.60;99.90
10802;DHT22;5453;50.852;7.102;2022-07-24T05:03:48;18.70;99.90
10802;DHT22;5453;50.852;7.102;2022-07-24T05:06:20;18.80;99.90
10802;DHT22;5453;50.852;7.102;2022-07-24T05:08:52;19.10;99.90
10802;DHT22;5453;50.852;7.102;2022-07-24T05:11:26;19.30;99.90
10802;DHT22;5453;50.852;7.102;2022-07-24T05:13:58;19.60;99.90
10802;DHT22;5453;50.852;7.102;2022-07-24T05:16:30;19.90;99.90
10802;DHT22;5453;50.852;7.102;2022-07-24T05:19:02;20.10;99.90
10802;DHT22;5453;50.852;7.102;2022-07-24T05:21:35;20.30;99.90
10802;DHT22;5453;50.852;7.102;2022-07-24T05:24:07;20.60;99.90
10802;DHT22;5453;50.852;7.102;2022-07-24T05:26:41;20.90;99.90
10802;DHT22;5453;50.852;7.102;2022-07-24T05:29:13;21.10;99.90
10802;DHT22;5453;50.852;7.102;2022-07-24T05:31:45;21.30;99.90
10802;DHT22;5453;50.852;7.102;2022-07-24T05:34:17;21.60;99.70
10802;DHT22;5453;50.852;7.102;2022-07-24T05:36:50;21.70;99.10
10802;DHT22;5453;50.852;7.102;2022-07-24T05:39:22;21.80;98.80
10802;DHT22;5453;50.852;7.102;2022-07-24T05:41:55;22.00;98.60
10802;DHT22;5453;50.852;7.102;2022-07-24T05:44:27;22.10;98.20
10802;DHT22;5453;50.852;7.102;2022-07-24T05:47:00;22.30;97.90
10802;DHT22;5453;50.852;7.102;2022-07-24T05:49:32;22.40;97.40
10802;DHT22;5453;50.852;7.102;2022-07-24T05:52:04;22.50;96.80
10802;DHT22;5453;50.852;7.102;2022-07-24T05:54:36;22.70;96.70
10802;DHT22;5453;50.852;7.102;2022-07-24T05:57:10;22.80;96.60
10802;DHT22;5453;50.852;7.102;2022-07-24T05:59:42;23.10;96.10
10802;DHT22;5453;50.852;7.102;2022-07-24T06:02:14;23.20;95.30
10802;DHT22;5453;50.852;7.102;2022-07-24T06:04:46;23.30;95.00
10802;DHT22;5453;50.852;7.102;2022-07-24T06:07:18;23.40;94.50
10802;DHT22;5453;50.852;7.102;2022-07-24T06:09:50;23.50;94.40
10802;DHT22;5453;50.852;7.102;2022-07-24T06:12:24;23.60;94.00
10802;DHT22;5453;50.852;7.102;2022-07-24T06:14:56;23.60;93.70
10802;DHT22;5453;50.852;7.102;2022-07-24T06:17:28;23.70;93.80
10802;DHT22;5453;50.852;7.102;2022-07-24T06:20:00;23.70;93.40
10802;DHT22;5453;50.852;7.102;2022-07-24T06:22:32;23.80;92.90
10802;DHT22;5453;50.852;7.102;2022-07-24T06:25:05;24.00;92.90
10802;DHT22;5453;50.852;7.102;2022-07-24T06:27:42;24.20;92.60
10802;DHT22;5453;50.852;7.102;2022-07-24T06:30:15;24.50;92.00
10802;DHT22;5453;50.852;7.102;2022-07-24T06:32:48;24.60;91.00
10802;DHT22;5453;50.852;7.102;2022-07-24T06:35:21;24.70;90.70
10802;DHT22;5453;50.852;7.102;2022-07-24T06:37:54;24.90;90.30
10802;DHT22;5453;50.852;7.102;2022-07-24T06:40:27;25.10;89.00
10802;DHT22;5453;50.852;7.102;2022-07-24T06:43:01;25.20;88.80
10802;DHT22;5453;50.852;7.102;2022-07-24T06:45:33;25.40;88.10
10802;DHT22;5453;50.852;7.102;2022-07-24T06:48:06;25.50;86.80
10802;DHT22;5453;50.852;7.102;2022-07-24T06:50:38;25.60;86.50
10802;DHT22;5453;50.852;7.102;2022-07-24T06:53:11;25.70;85.40
10802;DHT22;5453;50.852;7.102;2022-07-24T06:55:43;25.80;85.40
10802;DHT22;5453;50.852;7.102;2022-07-24T06:58:16;25.90;85.10
10802;DHT22;5453;50.852;7.102;2022-07-24T07:00:49;25.90;84.30
10802;DHT22;5453;50.852;7.102;2022-07-24T07:03:21;25.70;83.60
10802;DHT22;5453;50.852;7.102;2022-07-24T07:05:53;25.50;84.40
10802;DHT22;5453;50.852;7.102;2022-07-24T07:08:25;25.40;85.70
10802;DHT22;5453;50.852;7.102;2022-07-24T07:10:57;25.30;85.50
10802;DHT22;5453;50.852;7.102;2022-07-24T07:13:30;25.30;85.60
10802;DHT22;5453;50.852;7.102;2022-07-24T07:16:03;25.40;85.90
10802;DHT22;5453;50.852;7.102;2022-07-24T07:18:36;25.30;85.80
10802;DHT22;5453;50.852;7.102;2022-07-24T07:21:08;25.40;85.70
10802;DHT22;5453;50.852;7.102;2022-07-24T07:23:40;25.40;86.00
10802;DHT22;5453;50.852;7.102;2022-07-24T07:26:12;25.40;85.20
10802;DHT22;5453;50.852;7.102;2022-07-24T07:28:46;25.50;84.80
10802;DHT22;5453;50.852;7.102;2022-07-24T07:31:18;25.50;83.90
10802;DHT22;5453;50.852;7.102;2022-07-24T07:33:50;25.60;83.80
10802;DHT22;5453;50.852;7.102;2022-07-24T07:36:22;25.60;83.50
10802;DHT22;5453;50.852;7.102;2022-07-24T07:38:54;25.70;84.10
10802;DHT22;5453;50.852;7.102;2022-07-24T07:41:28;25.90;84.10
10802;DHT22;5453;50.852;7.102;2022-07-24T07:44:01;26.00;83.00
10802;DHT22;5453;50.852;7.102;2022-07-24T07:46:33;26.20;82.10
10802;DHT22;5453;50.852;7.102;2022-07-24T07:49:05;26.20;81.70
10802;DHT22;5453;50.852;7.102;2022-07-24T07:51:37;26.40;81.30
10802;DHT22;5453;50.852;7.102;2022-07-24T07:54:10;26.50;80.20
10802;DHT22;5453;50.852;7.102;2022-07-24T07:56:42;26.70;79.60
10802;DHT22;5453;50.852;7.102;2022-07-24T07:59:16;26.90;79.70
10802;DHT22;5453;50.852;7.102;2022-07-24T08:01:48;27.10;79.20
10802;DHT22;5453;50.852;7.102;2022-07-24T08:04:20;27.30;78.30
10802;DHT22;5453;50.852;7.102;2022-07-24T08:06:53;27.50;78.30
10802;DHT22;5453;50.852;7.102;2022-07-24T08:09:25;27.70;78.10
10802;DHT22;5453;50.852;7.102;2022-07-24T08:11:57;27.90;77.10
10802;DHT22;5453;50.852;7.102;2022-07-24T08:14:30;28.10;75.70
10802;DHT22;5453;50.852;7.102;2022-07-24T08:17:03;28.30;75.60
10802;DHT22;5453;50.852;7.102;2022-07-24T08:19:35;28.60;75.80
10802;DHT22;5453;50.852;7.102;2022-07-24T08:22:07;28.90;75.30
10802;DHT22;5453;50.852;7.102;2022-07-24T08:24:40;29.20;73.30
10802;DHT22;5453;50.852;7.102;2022-07-24T08:27:12;29.60;71.40
10802;DHT22;5453;50.852;7.102;2022-07-24T08:29:45;30.00;70.60
10802;DHT22;5453;50.852;7.102;2022-07-24T08:32:17;30.30;70.50
10802;DHT22;5453;50.852;7.102;2022-07-24T08:34:49;30.70;68.00
10802;DHT22;5453;50.852;7.102;2022-07-24T08:37:22;31.20;67.30
10802;DHT22;5453;50.852;7.102;2022-07-24T08:39:54;31.90;65.00
10802;DHT22;5453;50.852;7.102;2022-07-24T08:42:26;32.90;62.70
10802;DHT22;5453;50.852;7.102;2022-07-24T08:44:59;33.70;60.70
10802;DHT22;5453;50.852;7.102;2022-07-24T08:47:31;34.50;58.00
10802;DHT22;5453;50.852;7.102;2022-07-24T08:50:05;35.30;55.50
10802;DHT22;5453;50.852;7.102;2022-07-24T08:52:42;36.00;54.00
10802;DHT22;5453;50.852;7.102;2022-07-24T08:55:14;36.50;52.50
10802;DHT22;5453;50.852;7.102;2022-07-24T08:57:47;36.90;51.80
10802;DHT22;5453;50.852;7.102;2022-07-24T09:00:21;37.20;50.90
10802;DHT22;5453;50.852;7.102;2022-07-24T09:02:53;37.50;50.60
10802;DHT22;5453;50.852;7.102;2022-07-24T09:05:25;37.30;49.50
10802;DHT22;5453;50.852;7.102;2022-07-24T09:08:08;37.30;49.60
10802;DHT22;5453;50.852;7.102;2022-07-24T09:10:40;37.50;50.00
10802;DHT22;5453;50.852;7.102;2022-07-24T09:13:14;37.70;49.50
10802;DHT22;5453;50.852;7.102;2022-07-24T09:15:49;37.80;49.50
10802;DHT22;5453;50.852;7.102;2022-07-24T09:18:29;38.00;49.40
10802;DHT22;5453;50.852;7.102;2022-07-24T09:21:12;38.10;48.50
10802;DHT22;5453;50.852;7.102;2022-07-24T09:23:45;38.10;48.40
10802;DHT22;5453;50.852;7.102;2022-07-24T09:26:19;37.90;48.70
10802;DHT22;5453;50.852;7.102;2022-07-24T09:28:53;37.70;49.00
10802;DHT22;5453;50.852;7.102;2022-07-24T09:31:27;37.50;48.40
10802;DHT22;5453;50.852;7.102;2022-07-24T09:34:08;37.20;48.20
10802;DHT22;5453;50.852;7.102;2022-07-24T09:36:41;36.50;48.50
10802;DHT22;5453;50.852;7.102;2022-07-24T09:39:17;36.10;49.10
10802;DHT22;5453;50.852;7.102;2022-07-24T09:41:50;35.50;50.30
10802;DHT22;5453;50.852;7.102;2022-07-24T09:44:24;34.90;50.40
10802;DHT22;5453;50.852;7.102;2022-07-24T09:47:00;34.30;50.70
10802;DHT22;5453;50.852;7.102;2022-07-24T09:49:35;33.70;51.50
10802;DHT22;5453;50.852;7.102;2022-07-24T09:52:11;33.30;53.60
10802;DHT22;5453;50.852;7.102;2022-07-24T09:54:46;33.10;53.90
10802;DHT22;5453;50.852;7.102;2022-07-24T09:57:24;32.90;53.80
10802;DHT22;5453;50.852;7.102;2022-07-24T09:59:59;32.90;54.30
10802;DHT22;5453;50.852;7.102;2022-07-24T10:02:36;32.80;54.00
10802;DHT22;5453;50.852;7.102;2022-07-24T10:05:10;32.60;54.70
10802;DHT22;5453;50.852;7.102;2022-07-24T10:07:47;32.60;55.40
10802;DHT22;5453;50.852;7.102;2022-07-24T10:10:21;32.60;55.60
10802;DHT22;5453;50.852;7.102;2022-07-24T10:12:53;32.50;55.60
10802;DHT22;5453;50.852;7.102;2022-07-24T10:15:29;32.40;56.50
10802;DHT22;5453;50.852;7.102;2022-07-24T10:18:25;32.40;56.30
10802;DHT22;5453;50.852;7.102;2022-07-24T10:21:07;32.40;55.80
10802;DHT22;5453;50.852;7.102;2022-07-24T10:24:11;32.40;55.40
10802;DHT22;5453;50.852;7.102;2022-07-24T10:27:02;32.30;55.80
10802;DHT22;5453;50.852;7.102;2022-07-24T10:29:35;32.30;56.40
10802;DHT22;5453;50.852;7.102;2022-07-24T10:32:09;32.30;56.20
10802;DHT22;5453;50.852;7.102;2022-07-24T10:34:48;32.20;55.50
10802;DHT22;5453;50.852;7.102;2022-07-24T10:37:28;32.20;55.70
10802;DHT22;5453;50.852;7.102;2022-07-24T10:40:11;32.10;56.30
10802;DHT22;5453;50.852;7.102;2022-07-24T10:43:07;32.20;56.50
10802;DHT22;5453;50.852;7.102;2022-07-24T10:45:45;32.20;55.70
10802;DHT22;5453;50.852;7.102;2022-07-24T10:48:31;32.30;54.70
10802;DHT22;5453;50.852;7.102;2022-07-24T10:51:10;32.40;54.50
10802;DHT22;5453;50.852;7.102;2022-07-24T10:53:50;32.40;54.50
10802;DHT22;5453;50.852;7.102;2022-07-24T10:56:26;32.40;54.20
10802;DHT22;5453;50.852;7.102;2022-07-24T10:59:02;32.40;53.90
10802;DHT22;5453;50.852;7.102;2022-07-24T11:01:39;32.40;54.50
10802;DHT22;5453;50.852;7.102;2022-07-24T11:04:29;32.40;55.40
10802;DHT22;5453;50.852;7.102;2022-07-24T11:07:10;32.60;55.00
10802;DHT22;5453;50.852;7.102;2022-07-24T11:09:58;32.60;55.10
10802;DHT22;5453;50.852;7.102;2022-07-24T11:12:32;32.70;55.10
10802;DHT22;5453;50.852;7.102;2022-07-24T11:15:06;32.70;55.20
10802;DHT22;5453;50.852;7.102;2022-07-24T11:18:12;32.70;55.30
10802;DHT22;5453;50.852;7.102;2022-07-24T11:20:45;32.60;55.30
10802;DHT22;5453;50.852;7.102;2022-07-24T11:23:22;32.50;55.20
10802;DHT22;5453;50.852;7.102;2022-07-24T11:26:38;32.50;55.10
10802;DHT22;5453;50.852;7.102;2022-07-24T11:29:12;32.50;55.20
10802;DHT22;5453;50.852;7.102;2022-07-24T11:31:46;32.40;55.10
10802;DHT22;5453;50.852;7.102;2022-07-24T11:34:20;32.50;55.60
10802;DHT22;5453;50.852;7.102;2022-07-24T11:36:53;32.60;55.60
10802;DHT22;5453;50.852;7.102;2022-07-24T11:39:29;32.70;55.30
10802;DHT22;5453;50.852;7.102;2022-07-24T11:42:04;32.80;54.50
10802;DHT22;5453;50.852;7.102;2022-07-24T11:44:38;32.80;53.90
10802;DHT22;5453;50.852;7.102;2022-07-24T11:47:13;32.90;53.90
10802;DHT22;5453;50.852;7.102;2022-07-24T11:49:48;32.90;54.00
10802;DHT22;5453;50.852;7.102;2022-07-24T11:52:22;33.00;54.20
10802;DHT22;5453;50.852;7.102;2022-07-24T11:54:58;33.00;53.60
10802;DHT22;5453;50.852;7.102;2022-07-24T11:57:33;32.90;53.40
10802;DHT22;5453;50.852;7.102;2022-07-24T12:00:08;33.00;53.20
10802;DHT22;5453;50.852;7.102;2022-07-24T12:02:43;33.00;53.10
10802;DHT22;5453;50.852;7.102;2022-07-24T12:05:24;33.00;52.50
10802;DHT22;5453;50.852;7.102;2022-07-24T12:07:58;32.90;51.20
10802;DHT22;5453;50.852;7.102;2022-07-24T12:10:33;32.80;50.50
10802;DHT22;5453;50.852;7.102;2022-07-24T12:13:06;32.60;50.90
10802;DHT22;5453;50.852;7.102;2022-07-24T12:15:38;32.50;51.30
10802;DHT22;5453;50.852;7.102;2022-07-24T12:18:11;32.60;51.50
10802;DHT22;5453;50.852;7.102;2022-07-24T12:20:44;32.60;52.20
10802;DHT22;5453;50.852;7.102;2022-07-24T12:23:17;32.70;51.80
10802;DHT22;5453;50.852;7.102;2022-07-24T12:25:52;32.80;51.20
10802;DHT22;5453;50.852;7.102;2022-07-24T12:28:24;32.80;50.70
10802;DHT22;5453;50.852;7.102;2022-07-24T12:30:56;32.70;51.00
10802;DHT22;5453;50.852;7.102;2022-07-24T12:33:28;32.70;50.90
10802;DHT22;5453;50.852;7.102;2022-07-24T12:36:05;32.80;51.30
10802;DHT22;5453;50.852;7.102;2022-07-24T12:38:49;32.80;51.30
10802;DHT22;5453;50.852;7.102;2022-07-24T12:41:25;32.80;51.20
10802;DHT22;5453;50.852;7.102;2022-07-24T12:43:59;32.90;51.30
10802;DHT22;5453;50.852;7.102;2022-07-24T12:46:34;32.90;51.50
10802;DHT22;5453;50.852;7.102;2022-07-24T12:49:09;33.00;51.20
10802;DHT22;5453;50.852;7.102;2022-07-24T12:51:46;33.10;51.40
10802;DHT22;5453;50.852;7.102;2022-07-24T12:54:20;33.10;51.00
10802;DHT22;5453;50.852;7.102;2022-07-24T12:56:56;33.10;50.30
10802;DHT22;5453;50.852;7.102;2022-07-24T12:59:31;33.10;50.20
10802;DHT22;5453;50.852;7.102;2022-07-24T13:02:06;33.10;50.60
10802;DHT22;5453;50.852;7.102;2022-07-24T13:04:43;33.10;50.50
10802;DHT22;5453;50.852;7.102;2022-07-24T13:07:18;32.90;51.00
10802;DHT22;5453;50.852;7.102;2022-07-24T13:09:52;32.70;50.00
10802;DHT22;5453;50.852;7.102;2022-07-24T13:12:26;32.60;50.10
10802;DHT22;5453;50.852;7.102;2022-07-24T13:14:58;32.60;51.20
10802;DHT22;5453;50.852;7.102;2022-07-24T13:17:30;32.60;51.80
10802;DHT22;5453;50.852;7.102;2022-07-24T13:20:02;32.60;51.00
10802;DHT22;5453;50.852;7.102;2022-07-24T13:22:37;32.60;51.00
10802;DHT22;5453;50.852;7.102;2022-07-24T13:25:09;32.70;51.20
10802;DHT22;5453;50.852;7.102;2022-07-24T13:27:43;32.70;50.90
10802;DHT22;5453;50.852;7.102;2022-07-24T13:30:15;32.70;50.60
10802;DHT22;5453;50.852;7.102;2022-07-24T13:32:47;32.70;50.40
10802;DHT22;5453;50.852;7.102;2022-07-24T13:35:19;32.60;50.20
10802;DHT22;5453;50.852;7.102;2022-07-24T13:37:51;32.50;51.40
10802;DHT22;5453;50.852;7.102;2022-07-24T13:40:23;32.50;50.90
10802;DHT22;5453;50.852;7.102;2022-07-24T13:42:57;32.50;52.00
10802;DHT22;5453;50.852;7.102;2022-07-24T13:45:29;32.60;51.70
10802;DHT22;5453;50.852;7.102;2022-07-24T13:48:01;32.70;51.40
10802;DHT22;5453;50.852;7.102;2022-07-24T13:50:34;32.70;50.80
10802;DHT22;5453;50.852;7.102;2022-07-24T13:53:06;32.80;50.50
10802;DHT22;5453;50.852;7.102;2022-07-24T13:55:38;32.70;50.30
10802;DHT22;5453;50.852;7.102;2022-07-24T13:58:11;32.70;50.20
10802;DHT22;5453;50.852;7.102;2022-07-24T14:00:44;32.60;50.10
10802;DHT22;5453;50.852;7.102;2022-07-24T14:03:16;32.60;50.30
10802;DHT22;5453;50.852;7.102;2022-07-24T14:05:48;32.60;50.00
10802;DHT22;5453;50.852;7.102;2022-07-24T14:08:20;32.50;50.40
10802;DHT22;5453;50.852;7.102;2022-07-24T14:10:52;32.50;50.80
10802;DHT22;5453;50.852;7.102;2022-07-24T14:13:26;32.50;50.30
10802;DHT22;5453;50.852;7.102;2022-07-24T14:15:58;32.40;50.10
10802;DHT22;5453;50.852;7.102;2022-07-24T14:18:30;32.40;50.40
10802;DHT22;5453;50.852;7.102;2022-07-24T14:21:03;32.40;50.30
10802;DHT22;5453;50.852;7.102;2022-07-24T14:23:35;32.40;50.40
10802;DHT22;5453;50.852;7.102;2022-07-24T14:26:07;32.30;50.50
10802;DHT22;5453;50.852;7.102;2022-07-24T14:28:40;32.30;51.10
10802;DHT22;5453;50.852;7.102;2022-07-24T14:31:13;32.40;51.80
10802;DHT22;5453;50.852;7.102;2022-07-24T14:33:45;32.40;52.10
10802;DHT22;5453;50.852;7.102;2022-07-24T14:36:17;32.50;51.70
10802;DHT22;5453;50.852;7.102;2022-07-24T14:38:49;32.60;51.80
10802;DHT22;5453;50.852;7.102;2022-07-24T14:41:21;32.60;51.50
10802;DHT22;5453;50.852;7.102;2022-07-24T14:43:55;32.60;50.40
10802;DHT22;5453;50.852;7.102;2022-07-24T14:46:27;32.60;50.40
10802;DHT22;5453;50.852;7.102;2022-07-24T14:48:59;32.60;49.90
10802;DHT22;5453;50.852;7.102;2022-07-24T14:51:31;32.60;49.90
10802;DHT22;5453;50.852;7.102;2022-07-24T14:54:04;32.60;50.10
10802;DHT22;5453;50.852;7.102;2022-07-24T14:56:37;32.50;50.10
10802;DHT22;5453;50.852;7.102;2022-07-24T14:59:11;32.50;50.20
10802;DHT22;5453;50.852;7.102;2022-07-24T15:01:43;32.50;50.40
10802;DHT22;5453;50.852;7.102;2022-07-24T15:04:16;32.50;50.80
10802;DHT22;5453;50.852;7.102;2022-07-24T15:06:48;32.50;51.10
10802;DHT22;5453;50.852;7.102;2022-07-24T15:09:20;32.50;50.80
10802;DHT22;5453;50.852;7.102;2022-07-24T15:11:52;32.50;51.30
10802;DHT22;5453;50.852;7.102;2022-07-24T15:14:26;32.50;50.90
10802;DHT22;5453;50.852;7.102;2022-07-24T15:16:58;32.50;50.50
10802;DHT22;5453;50.852;7.102;2022-07-24T15:19:30;32.50;50.60
10802;DHT22;5453;50.852;7.102;2022-07-24T15:22:02;32.50;50.50
10802;DHT22;5453;50.852;7.102;2022-07-24T15:24:34;32.50;50.90
10802;DHT22;5453;50.852;7.102;2022-07-24T15:27:07;32.60;50.50
10802;DHT22;5453;50.852;7.102;2022-07-24T15:29:40;32.60;49.90
10802;DHT22;5453;50.852;7.102;2022-07-24T15:32:12;32.50;50.50
10802;DHT22;5453;50.852;7.102;2022-07-24T15:34:44;32.50;50.40
10802;DHT22;5453;50.852;7.102;2022-07-24T15:37:16;32.40;49.90
10802;DHT22;5453;50.852;7.102;2022-07-24T15:39:49;32.40;50.10
10802;DHT22;5453;50.852;7.102;2022-07-24T15:42:21;32.30;49.90
10802;DHT22;5453;50.852;7.102;2022-07-24T15:44:54;32.30;49.80
10802;DHT22;5453;50.852;7.102;2022-07-24T15:47:26;32.20;49.90
10802;DHT22;5453;50.852;7.102;2022-07-24T15:49:58;32.20;50.50
10802;DHT22;5453;50.852;7.102;2022-07-24T15:52:31;32.20;50.30
10802;DHT22;5453;50.852;7.102;2022-07-24T15:55:03;32.20;50.10
10802;DHT22;5453;50.852;7.102;2022-07-24T15:57:36;32.10;50.30
10802;DHT22;5453;50.852;7.102;2022-07-24T16:00:10;32.10;50.10
10802;DHT22;5453;50.852;7.102;2022-07-24T16:02:43;32.00;50.60
10802;DHT22;5453;50.852;7.102;2022-07-24T16:05:15;32.00;50.00
10802;DHT22;5453;50.852;7.102;2022-07-24T16:07:48;32.00;50.30
10802;DHT22;5453;50.852;7.102;2022-07-24T16:10:21;32.00;50.30
10802;DHT22;5453;50.852;7.102;2022-07-24T16:12:53;31.90;50.90
10802;DHT22;5453;50.852;7.102;2022-07-24T16:15:27;31.90;50.30
10802;DHT22;5453;50.852;7.102;2022-07-24T16:17:59;31.90;50.50
10802;DHT22;5453;50.852;7.102;2022-07-24T16:20:31;31.80;50.30
10802;DHT22;5453;50.852;7.102;2022-07-24T16:23:04;31.80;50.90
10802;DHT22;5453;50.852;7.102;2022-07-24T16:25:36;31.80;51.40